createdAt,value
2018-08-31T00:00:46.988Z,12.20
2018-08-31T00:03:20.625Z,12.20
2018-08-31T00:06:00.294Z,12.20
2018-08-31T00:08:39.382Z,12.20
2018-08-31T00:11:33.840Z,12.20
2018-08-31T00:14:02.158Z,12.20
2018-08-31T00:16:30.460Z,12.20
2018-08-31T00:18:58.746Z,12.10
2018-08-31T00:21:27.044Z,12.10
2018-08-31T00:24:06.641Z,12.10
2018-08-31T00:26:46.350Z,12.00
2018-08-31T00:29:34.811Z,12.10
2018-08-31T00:34:17.802Z,12.00
2018-08-31T00:38:00.309Z,12.00
2018-08-31T00:41:11.642Z,11.90
2018-08-31T00:43:55.900Z,11.90
2018-08-31T00:46:24.823Z,11.90
2018-08-31T00:48:53.141Z,11.90
2018-08-31T00:51:21.446Z,11.80
2018-08-31T00:53:49.726Z,11.80
2018-08-31T00:56:18.046Z,11.70
2018-08-31T00:58:46.313Z,11.70
2018-08-31T01:01:14.619Z,11.70
2018-08-31T01:03:42.945Z,11.70
2018-08-31T01:06:11.260Z,11.70
2018-08-31T01:08:39.559Z,11.60
2018-08-31T01:11:07.864Z,11.60
2018-08-31T01:13:37.330Z,11.60
2018-08-31T01:16:06.066Z,11.60
2018-08-31T01:18:34.724Z,11.60
2018-08-31T01:21:03.014Z,11.60
2018-08-31T01:23:31.307Z,11.60
2018-08-31T01:25:59.719Z,11.60
2018-08-31T01:28:28.035Z,11.50
2018-08-31T01:30:56.370Z,11.60
2018-08-31T01:33:24.656Z,11.50
2018-08-31T01:35:52.931Z,11.50
2018-08-31T01:38:21.204Z,11.50
2018-08-31T01:40:49.487Z,11.50
2018-08-31T01:43:17.823Z,11.40
2018-08-31T01:45:46.331Z,11.40
2018-08-31T01:48:14.637Z,11.40
2018-08-31T01:50:48.389Z,11.40
2018-08-31T01:53:16.986Z,11.40
2018-08-31T01:55:45.312Z,11.40
2018-08-31T01:58:13.591Z,11.40
2018-08-31T02:00:41.885Z,11.40
2018-08-31T02:03:10.171Z,11.40
2018-08-31T02:05:38.489Z,11.40
2018-08-31T02:08:06.988Z,11.40
2018-08-31T02:10:35.271Z,11.30
2018-08-31T02:13:03.585Z,11.30
2018-08-31T02:15:31.893Z,11.30
2018-08-31T02:18:00.205Z,11.30
2018-08-31T02:20:28.524Z,11.30
2018-08-31T02:22:56.856Z,11.30
2018-08-31T02:25:25.111Z,11.30
2018-08-31T02:27:53.374Z,11.20
2018-08-31T02:30:21.667Z,11.20
2018-08-31T02:32:50.041Z,11.20
2018-08-31T02:35:18.343Z,11.10
2018-08-31T02:37:46.640Z,11.10
2018-08-31T02:40:15.008Z,11.20
2018-08-31T02:42:43.312Z,11.20
2018-08-31T02:45:11.816Z,11.20
2018-08-31T02:47:40.451Z,11.20
2018-08-31T02:50:08.767Z,11.20
2018-08-31T02:52:37.053Z,11.20
2018-08-31T02:55:05.351Z,11.20
2018-08-31T02:57:33.640Z,11.20
2018-08-31T03:00:01.908Z,11.20
2018-08-31T03:02:30.558Z,11.20
2018-08-31T03:04:58.844Z,11.20
2018-08-31T03:07:27.166Z,11.20
2018-08-31T03:09:55.535Z,11.20
2018-08-31T03:12:23.859Z,11.20
2018-08-31T03:14:52.175Z,11.20
2018-08-31T03:17:20.488Z,11.20
2018-08-31T03:19:48.798Z,11.20
2018-08-31T03:22:17.155Z,11.20
2018-08-31T03:24:45.910Z,11.20
2018-08-31T03:27:14.195Z,11.20
2018-08-31T03:29:42.518Z,11.20
2018-08-31T03:32:10.805Z,11.10
2018-08-31T03:34:39.445Z,11.10
2018-08-31T03:37:07.911Z,11.10
2018-08-31T03:39:36.348Z,11.10
2018-08-31T03:42:04.649Z,11.10
2018-08-31T03:44:32.966Z,11.10
2018-08-31T03:47:01.291Z,11.10
2018-08-31T03:49:29.574Z,11.10
2018-08-31T03:51:57.874Z,11.10
2018-08-31T03:54:26.169Z,11.10
2018-08-31T03:56:54.510Z,11.10
2018-08-31T03:59:22.837Z,11.10
2018-08-31T04:01:51.159Z,11.10
2018-08-31T04:04:19.434Z,11.10
2018-08-31T04:06:47.743Z,11.10
2018-08-31T04:09:16.012Z,11.00
2018-08-31T04:11:44.825Z,11.00
2018-08-31T04:14:13.092Z,10.90
2018-08-31T04:16:41.401Z,10.90
2018-08-31T04:19:13.953Z,10.90
2018-08-31T04:21:42.404Z,10.80
2018-08-31T04:24:11.275Z,10.70
2018-08-31T04:26:39.598Z,10.70
2018-08-31T04:29:08.027Z,10.70
2018-08-31T04:31:36.315Z,10.70
2018-08-31T04:34:04.658Z,10.70
2018-08-31T04:36:33.212Z,10.70
2018-08-31T04:39:01.677Z,10.80
2018-08-31T04:41:30.020Z,10.80
2018-08-31T04:43:58.307Z,10.80
2018-08-31T04:46:26.597Z,10.80
2018-08-31T04:48:54.881Z,10.80
2018-08-31T04:51:23.150Z,10.80
2018-08-31T04:53:51.513Z,10.80
2018-08-31T04:56:19.808Z,10.90
2018-08-31T04:58:48.240Z,10.90
2018-08-31T05:01:17.056Z,10.90
2018-08-31T05:03:45.738Z,11.00
2018-08-31T05:06:14.037Z,11.00
2018-08-31T05:08:42.577Z,11.10
2018-08-31T05:11:11.213Z,11.10
2018-08-31T05:13:39.852Z,11.10
2018-08-31T05:16:08.208Z,11.20
2018-08-31T05:18:36.628Z,11.20
2018-08-31T05:21:05.333Z,11.20
2018-08-31T05:23:33.679Z,11.30
2018-08-31T05:26:02.085Z,11.30
2018-08-31T05:28:30.424Z,11.40
2018-08-31T05:30:58.878Z,11.50
2018-08-31T05:33:27.222Z,11.60
2018-08-31T05:35:55.516Z,11.70
2018-08-31T05:38:23.852Z,11.70
2018-08-31T05:40:52.398Z,11.80
2018-08-31T05:43:20.704Z,11.80
2018-08-31T05:45:49.068Z,11.90
2018-08-31T05:48:17.371Z,12.00
2018-08-31T05:50:45.672Z,12.10
2018-08-31T05:53:13.978Z,12.10
2018-08-31T05:55:42.711Z,12.20
2018-08-31T05:58:11.006Z,12.30
2018-08-31T06:00:39.293Z,12.30
2018-08-31T06:03:07.616Z,12.40
2018-08-31T06:05:35.968Z,12.50
2018-08-31T06:08:04.294Z,12.50
2018-08-31T06:10:32.714Z,12.60
2018-08-31T06:13:01.220Z,12.70
2018-08-31T06:15:29.551Z,12.80
2018-08-31T06:17:57.927Z,12.90
2018-08-31T06:20:26.257Z,13.00
2018-08-31T06:22:54.539Z,13.00
2018-08-31T06:25:22.848Z,13.10
2018-08-31T06:27:51.596Z,13.20
2018-08-31T06:30:19.877Z,13.30
2018-08-31T06:32:48.258Z,13.30
2018-08-31T06:35:17.229Z,13.30
2018-08-31T06:37:45.672Z,13.30
2018-08-31T06:40:14.020Z,13.40
2018-08-31T06:42:42.364Z,13.40
2018-08-31T06:45:11.991Z,13.50
2018-08-31T06:47:40.301Z,13.60
2018-08-31T06:50:08.673Z,13.70
2018-08-31T06:52:37.014Z,13.70
2018-08-31T06:55:05.400Z,13.70
2018-08-31T06:57:33.876Z,13.90
2018-08-31T07:00:02.177Z,14.00
2018-08-31T07:02:30.518Z,14.10
2018-08-31T07:04:58.856Z,14.10
2018-08-31T07:07:27.680Z,14.10
2018-08-31T07:09:55.937Z,14.10
2018-08-31T07:12:24.297Z,14.20
2018-08-31T07:14:52.717Z,14.30
2018-08-31T07:17:21.030Z,14.20
2018-08-31T07:19:49.413Z,14.20
2018-08-31T07:22:17.897Z,14.20
2018-08-31T07:24:46.413Z,14.20
2018-08-31T07:27:14.724Z,14.20
2018-08-31T07:29:43.036Z,14.20
2018-08-31T07:32:11.515Z,14.20
2018-08-31T07:34:40.307Z,14.20
2018-08-31T07:37:08.655Z,14.30
2018-08-31T07:39:36.987Z,14.20
2018-08-31T07:42:05.687Z,14.20
2018-08-31T07:44:34.145Z,14.10
2018-08-31T07:47:02.512Z,14.00
2018-08-31T07:49:30.818Z,14.00
2018-08-31T07:51:59.140Z,14.00
2018-08-31T07:54:27.540Z,14.10
2018-08-31T07:57:07.894Z,14.10
2018-08-31T07:59:36.318Z,14.20
2018-08-31T08:02:04.946Z,14.30
2018-08-31T08:04:33.281Z,14.40
2018-08-31T08:07:01.642Z,14.40
2018-08-31T08:09:29.990Z,14.50
2018-08-31T08:11:58.316Z,14.60
2018-08-31T08:14:26.658Z,14.70
2018-08-31T08:16:55.020Z,14.80
2018-08-31T08:19:23.899Z,14.90
2018-08-31T08:21:53.043Z,15.00
2018-08-31T08:24:21.925Z,15.10
2018-08-31T08:26:50.833Z,15.20
2018-08-31T08:29:19.769Z,15.30
2018-08-31T08:31:48.647Z,15.40
2018-08-31T08:34:17.574Z,15.60
2018-08-31T08:36:46.494Z,15.70
2018-08-31T08:39:15.408Z,15.90
2018-08-31T08:41:44.657Z,16.00
2018-08-31T08:44:13.555Z,16.20
2018-08-31T08:46:42.464Z,16.40
2018-08-31T08:49:11.371Z,16.60
2018-08-31T08:51:40.289Z,16.80
2018-08-31T08:54:09.130Z,16.90
2018-08-31T08:56:37.988Z,17.10
2018-08-31T08:59:06.884Z,17.20
2018-08-31T09:01:35.436Z,17.40
2018-08-31T09:04:11.423Z,17.50
2018-08-31T09:06:40.673Z,17.60
2018-08-31T09:09:10.253Z,17.70
2018-08-31T09:11:39.369Z,17.90
2018-08-31T09:14:08.508Z,18.10
2018-08-31T09:16:37.508Z,18.20
2018-08-31T09:19:06.368Z,18.30
2018-08-31T09:21:35.570Z,18.40
2018-08-31T09:24:04.411Z,18.50
2018-08-31T09:26:33.818Z,18.60
2018-08-31T09:29:02.692Z,18.80
2018-08-31T09:31:34.617Z,18.80
2018-08-31T09:34:03.464Z,18.90
2018-08-31T09:36:32.617Z,18.90
2018-08-31T09:39:01.457Z,19.00
2018-08-31T09:41:30.343Z,19.10
2018-08-31T09:43:59.287Z,19.10
2018-08-31T09:46:28.280Z,19.20
2018-08-31T09:48:57.178Z,19.20
2018-08-31T09:51:26.022Z,19.30
2018-08-31T09:53:54.879Z,19.30
2018-08-31T09:56:24.065Z,19.40
2018-08-31T09:58:53.229Z,19.50
2018-08-31T10:01:27.099Z,19.50
2018-08-31T10:03:55.919Z,19.50
2018-08-31T10:06:24.826Z,19.50
2018-08-31T10:08:53.732Z,19.50
2018-08-31T10:11:22.646Z,19.50
2018-08-31T10:13:51.558Z,19.50
2018-08-31T10:16:20.463Z,19.60
2018-08-31T10:18:49.390Z,19.70
2018-08-31T10:21:18.416Z,19.70
2018-08-31T10:23:47.382Z,19.70
2018-08-31T10:26:16.413Z,19.70
2018-08-31T10:28:45.449Z,19.80
2018-08-31T10:31:14.351Z,19.80
2018-08-31T10:33:43.413Z,19.80
2018-08-31T10:36:12.371Z,19.80
2018-08-31T10:38:41.252Z,20.00
2018-08-31T10:41:10.230Z,20.10
2018-08-31T10:43:39.142Z,20.20
2018-08-31T10:46:08.054Z,20.30
2018-08-31T10:48:37.012Z,20.40
2018-08-31T10:51:06.194Z,20.50
2018-08-31T10:53:35.095Z,20.50
2018-08-31T10:56:03.973Z,20.70
2018-08-31T10:58:32.978Z,20.80
2018-08-31T11:01:01.962Z,20.90
2018-08-31T11:03:30.861Z,20.90
2018-08-31T11:05:59.777Z,20.90
2018-08-31T11:08:28.970Z,20.90
2018-08-31T11:10:57.972Z,20.90
2018-08-31T11:13:26.865Z,21.00
2018-08-31T11:15:55.761Z,20.90
2018-08-31T11:18:24.647Z,20.90
2018-08-31T11:20:53.548Z,20.90
2018-08-31T11:23:22.427Z,20.90
2018-08-31T11:25:51.317Z,20.90
2018-08-31T11:28:20.220Z,20.80
2018-08-31T11:30:49.129Z,20.80
2018-08-31T11:33:19.703Z,20.80
2018-08-31T11:35:49.034Z,20.80
2018-08-31T11:38:17.917Z,20.70
2018-08-31T11:40:46.941Z,20.70
2018-08-31T11:43:15.863Z,20.70
2018-08-31T11:45:44.908Z,20.70
2018-08-31T11:48:13.782Z,20.80
2018-08-31T11:50:42.667Z,20.80
2018-08-31T11:53:33.536Z,21.00
2018-08-31T11:56:02.415Z,21.10
2018-08-31T11:58:31.311Z,21.20
2018-08-31T12:00:59.876Z,21.30
2018-08-31T12:03:28.966Z,21.30
2018-08-31T12:05:57.843Z,21.40
2018-08-31T12:08:26.792Z,21.60
2018-08-31T12:10:55.962Z,21.70
2018-08-31T12:13:25.201Z,21.70
2018-08-31T12:15:54.189Z,22.00
2018-08-31T12:18:23.135Z,22.00
2018-08-31T12:20:52.063Z,22.10
2018-08-31T12:23:21.029Z,22.30
2018-08-31T12:25:49.980Z,22.00
2018-08-31T12:28:18.866Z,21.90
2018-08-31T12:30:47.760Z,21.70
2018-08-31T12:33:16.725Z,21.50
2018-08-31T12:35:45.606Z,21.40
2018-08-31T12:38:14.752Z,21.40
2018-08-31T12:40:43.663Z,21.40
2018-08-31T12:43:12.744Z,21.40
2018-08-31T12:45:41.627Z,21.30
2018-08-31T12:48:10.624Z,21.30
2018-08-31T12:50:39.505Z,21.30
2018-08-31T12:53:08.399Z,21.40
2018-08-31T12:55:37.323Z,21.20
2018-08-31T12:58:07.968Z,21.20
2018-08-31T13:00:36.855Z,21.20
2018-08-31T13:03:05.792Z,21.20
2018-08-31T13:05:34.692Z,21.20
2018-08-31T13:08:03.617Z,21.20
2018-08-31T13:10:32.514Z,21.30
2018-08-31T13:13:01.793Z,21.40
2018-08-31T13:15:31.057Z,21.50
2018-08-31T13:18:00.178Z,21.50
2018-08-31T13:20:29.112Z,21.40
2018-08-31T13:22:58.070Z,21.50
2018-08-31T13:25:26.982Z,21.80
2018-08-31T13:27:55.879Z,22.10
2018-08-31T13:30:24.811Z,21.90
2018-08-31T13:32:53.714Z,21.80
2018-08-31T13:35:22.550Z,21.80
2018-08-31T13:37:51.800Z,22.10
2018-08-31T13:40:20.898Z,22.20
2018-08-31T13:42:49.754Z,22.20
2018-08-31T13:45:18.648Z,22.20
2018-08-31T13:47:47.523Z,21.90
2018-08-31T13:50:16.385Z,22.00
2018-08-31T13:52:45.360Z,21.90
2018-08-31T13:55:14.503Z,21.90
2018-08-31T13:57:43.430Z,21.90
2018-08-31T14:00:12.300Z,21.80
2018-08-31T14:02:40.890Z,22.00
2018-08-31T14:05:10.074Z,22.10
2018-08-31T14:07:38.940Z,22.40
2018-08-31T14:10:07.870Z,22.50
2018-08-31T14:12:36.774Z,22.50
2018-08-31T14:15:05.945Z,22.30
2018-08-31T14:17:34.817Z,22.20
2018-08-31T14:20:03.943Z,22.10
2018-08-31T14:22:32.838Z,21.90
2018-08-31T14:25:01.721Z,21.80
2018-08-31T14:27:30.629Z,21.70
2018-08-31T14:30:00.064Z,21.50
2018-08-31T14:32:28.951Z,21.30
2018-08-31T14:34:57.862Z,21.30
2018-08-31T14:37:26.760Z,21.20
2018-08-31T14:39:55.596Z,21.10
2018-08-31T14:42:24.478Z,21.00
2018-08-31T14:44:53.379Z,21.10
2018-08-31T14:47:22.546Z,21.10
2018-08-31T14:49:51.492Z,21.30
2018-08-31T14:52:20.469Z,21.50
2018-08-31T14:54:49.394Z,21.60
2018-08-31T14:57:18.291Z,21.70
2018-08-31T14:59:47.164Z,21.90
2018-08-31T15:02:15.771Z,22.00
2018-08-31T15:04:44.670Z,22.10
2018-08-31T15:07:13.521Z,22.30
2018-08-31T15:09:42.479Z,22.50
2018-08-31T15:12:11.525Z,22.50
2018-08-31T15:14:40.651Z,22.50
2018-08-31T15:17:09.527Z,22.70
2018-08-31T15:19:38.137Z,22.90
2018-08-31T15:22:07.128Z,23.30
2018-08-31T15:24:35.820Z,23.60
2018-08-31T15:27:04.611Z,24.00
2018-08-31T15:29:33.521Z,24.30
2018-08-31T15:32:02.221Z,24.00
2018-08-31T15:34:31.145Z,23.80
2018-08-31T15:36:59.828Z,23.70
2018-08-31T15:39:28.508Z,23.50
2018-08-31T15:41:57.167Z,23.40
2018-08-31T15:44:26.002Z,23.50
2018-08-31T15:46:54.646Z,23.70
2018-08-31T15:49:23.292Z,23.80
2018-08-31T15:51:51.940Z,23.80
2018-08-31T15:54:20.517Z,24.00
2018-08-31T15:56:49.105Z,24.00
2018-08-31T15:59:17.723Z,24.30
2018-08-31T16:01:46.308Z,24.60
2018-08-31T16:04:14.924Z,25.10
2018-08-31T16:06:43.533Z,25.40
2018-08-31T16:09:12.206Z,25.90
2018-08-31T16:11:40.919Z,26.30
2018-08-31T16:14:09.534Z,26.40
2018-08-31T16:16:38.118Z,26.60
2018-08-31T16:19:07.127Z,26.80
2018-08-31T16:21:35.898Z,26.70
2018-08-31T16:24:04.851Z,26.80
2018-08-31T16:26:33.523Z,26.90
2018-08-31T16:29:02.144Z,27.00
2018-08-31T16:31:30.909Z,26.60
2018-08-31T16:33:59.482Z,26.10
2018-08-31T16:36:28.080Z,25.90
2018-08-31T16:38:56.772Z,25.30
2018-08-31T16:41:25.470Z,25.00
2018-08-31T16:43:54.067Z,24.60
2018-08-31T16:46:22.714Z,24.30
2018-08-31T16:48:51.429Z,23.40
2018-08-31T16:51:20.419Z,22.90
2018-08-31T16:53:53.178Z,22.30
2018-08-31T16:56:22.056Z,21.80
2018-08-31T16:58:51.938Z,21.60
2018-08-31T17:01:20.531Z,21.30
2018-08-31T17:03:49.458Z,21.10
2018-08-31T17:06:18.679Z,21.00
2018-08-31T17:08:47.590Z,20.70
2018-08-31T17:11:16.464Z,20.50
2018-08-31T17:13:45.356Z,20.40
2018-08-31T17:16:14.366Z,20.30
2018-08-31T17:18:43.255Z,20.10
2018-08-31T17:21:12.203Z,20.20
2018-08-31T17:23:41.099Z,20.00
2018-08-31T17:26:14.479Z,19.90
2018-08-31T17:28:49.040Z,19.70
2018-08-31T17:31:23.141Z,19.50
2018-08-31T17:33:57.501Z,19.40
2018-08-31T17:36:32.725Z,19.30
2018-08-31T17:39:02.056Z,19.30
2018-08-31T17:41:31.948Z,19.30
2018-08-31T17:44:00.876Z,19.30
2018-08-31T17:46:29.929Z,19.20
2018-08-31T17:48:59.417Z,19.10
2018-08-31T17:51:28.307Z,19.00
2018-08-31T17:53:57.313Z,19.00
2018-08-31T17:56:28.796Z,18.90
2018-08-31T17:58:58.481Z,18.80
2018-08-31T18:01:27.451Z,18.70
2018-08-31T18:03:56.416Z,18.70
2018-08-31T18:06:25.522Z,18.60
2018-08-31T18:08:54.551Z,18.50
2018-08-31T18:11:23.496Z,18.40
2018-08-31T18:13:52.588Z,18.20
2018-08-31T18:16:21.487Z,18.10
2018-08-31T18:18:50.576Z,18.10
2018-08-31T18:21:19.690Z,18.00
2018-08-31T18:23:48.622Z,17.90
2018-08-31T18:26:17.698Z,17.70
2018-08-31T18:28:47.452Z,17.60
2018-08-31T18:31:16.407Z,17.40
2018-08-31T18:33:45.332Z,17.40
2018-08-31T18:36:14.382Z,17.30
2018-08-31T18:38:43.381Z,17.20
2018-08-31T18:41:12.386Z,17.10
2018-08-31T18:43:41.359Z,17.00
2018-08-31T18:46:10.279Z,16.90
2018-08-31T18:48:39.217Z,16.80
2018-08-31T18:51:08.146Z,16.70
2018-08-31T18:53:37.181Z,16.60
2018-08-31T18:56:06.117Z,16.50
2018-08-31T18:58:35.070Z,16.40
2018-08-31T19:01:03.434Z,16.30
2018-08-31T19:03:32.411Z,16.20
2018-08-31T19:06:01.404Z,16.10
2018-08-31T19:08:30.447Z,16.00
2018-08-31T19:10:59.394Z,16.00
2018-08-31T19:13:28.336Z,15.90
2018-08-31T19:15:57.412Z,15.80
2018-08-31T19:18:25.846Z,15.70
2018-08-31T19:20:54.441Z,15.60
2018-08-31T19:23:22.759Z,15.50
2018-08-31T19:25:51.689Z,15.50
2018-08-31T19:28:20.036Z,15.40
2018-08-31T19:30:48.336Z,15.40
2018-08-31T19:33:16.650Z,15.30
2018-08-31T19:35:44.993Z,15.20
2018-08-31T19:38:13.295Z,15.20
2018-08-31T19:40:41.699Z,15.10
2018-08-31T19:43:10.056Z,15.00
2018-08-31T19:45:38.455Z,15.00
2018-08-31T19:48:06.880Z,15.00
2018-08-31T19:50:35.749Z,14.90
2018-08-31T19:53:04.080Z,14.90
2018-08-31T19:55:32.447Z,14.80
2018-08-31T19:58:00.874Z,14.80
2018-08-31T20:00:29.215Z,14.70
2018-08-31T20:02:57.543Z,14.70
2018-08-31T20:05:26.615Z,14.60
2018-08-31T20:07:54.955Z,14.60
2018-08-31T20:10:23.320Z,14.50
2018-08-31T20:12:51.701Z,14.40
2018-08-31T20:15:20.115Z,14.40
2018-08-31T20:17:48.521Z,14.30
2018-08-31T20:20:17.103Z,14.30
2018-08-31T20:22:45.557Z,14.20
2018-08-31T20:25:13.918Z,14.20
2018-08-31T20:27:42.362Z,14.10
2018-08-31T20:30:10.722Z,14.00
2018-08-31T20:32:39.061Z,14.00
2018-08-31T20:35:07.476Z,14.00
2018-08-31T20:37:35.893Z,13.90
2018-08-31T20:40:04.798Z,13.90
2018-08-31T20:42:33.156Z,13.80
2018-08-31T20:45:01.604Z,13.80
2018-08-31T20:47:29.986Z,13.70
2018-08-31T20:49:58.379Z,13.70
2018-08-31T20:52:26.755Z,13.70
2018-08-31T20:54:55.136Z,13.70
2018-08-31T20:57:23.618Z,13.70
2018-08-31T20:59:52.001Z,13.60
2018-08-31T21:02:20.439Z,13.60
2018-08-31T21:04:48.984Z,13.60
2018-08-31T21:07:17.336Z,13.50
2018-08-31T21:09:45.754Z,13.50
2018-08-31T21:12:14.166Z,13.50
2018-08-31T21:14:42.494Z,13.50
2018-08-31T21:17:10.859Z,13.50
2018-08-31T21:19:39.210Z,13.40
2018-08-31T21:22:07.919Z,13.40
2018-08-31T21:24:36.581Z,13.40
2018-08-31T21:27:05.036Z,13.40
2018-08-31T21:29:33.414Z,13.40
2018-08-31T21:32:01.804Z,13.40
2018-08-31T21:34:30.381Z,13.30
2018-08-31T21:36:58.722Z,13.40
2018-08-31T21:39:27.046Z,13.30
2018-08-31T21:41:55.499Z,13.30
2018-08-31T21:44:24.102Z,13.30
2018-08-31T21:46:52.473Z,13.20
2018-08-31T21:49:20.813Z,13.20
2018-08-31T21:51:49.347Z,13.10
2018-08-31T21:54:17.992Z,13.20
2018-08-31T21:56:46.420Z,13.10
2018-08-31T21:59:14.778Z,13.00
2018-08-31T22:01:47.364Z,13.00
2018-08-31T22:04:15.668Z,13.00
2018-08-31T22:06:44.068Z,12.90
2018-08-31T22:09:12.416Z,12.90
2018-08-31T22:11:40.957Z,12.90
2018-08-31T22:14:09.451Z,12.90
2018-08-31T22:16:37.802Z,12.80
2018-08-31T22:19:06.270Z,12.80
2018-08-31T22:21:34.694Z,12.80
2018-08-31T22:24:03.028Z,12.80
2018-08-31T22:26:31.540Z,12.80
2018-08-31T22:28:59.981Z,12.70
2018-08-31T22:31:28.691Z,12.70
2018-08-31T22:33:57.089Z,12.70
2018-08-31T22:36:25.480Z,12.70
2018-08-31T22:38:54.398Z,12.60
2018-08-31T22:41:22.796Z,12.60
2018-08-31T22:43:52.762Z,12.50
2018-08-31T22:46:23.183Z,12.50
2018-08-31T22:48:52.082Z,12.50
2018-08-31T22:51:21.396Z,12.50
2018-08-31T22:53:50.198Z,12.40
2018-08-31T22:56:18.619Z,12.50
2018-08-31T22:58:47.009Z,12.50
2018-08-31T23:01:15.389Z,12.50
2018-08-31T23:03:43.900Z,12.40
2018-08-31T23:06:12.590Z,12.40
2018-08-31T23:08:40.989Z,12.40
2018-08-31T23:11:10.615Z,12.40
2018-08-31T23:13:40.964Z,12.30
2018-08-31T23:16:09.512Z,12.20
2018-08-31T23:18:38.268Z,12.20
2018-08-31T23:21:07.639Z,12.20
2018-08-31T23:23:41.915Z,12.20
2018-08-31T23:26:10.363Z,12.10
2018-08-31T23:28:38.767Z,12.10
2018-08-31T23:31:07.127Z,12.10
2018-08-31T23:33:35.457Z,12.10
2018-08-31T23:36:03.759Z,12.10
2018-08-31T23:38:32.429Z,12.10
2018-08-31T23:41:00.739Z,12.10
2018-08-31T23:43:29.091Z,12.00
2018-08-31T23:45:57.432Z,12.00
2018-08-31T23:48:25.746Z,12.00
2018-08-31T23:50:54.062Z,12.00
2018-08-31T23:53:22.401Z,12.00
2018-08-31T23:55:50.771Z,12.00
2018-08-31T23:58:19.092Z,12.00
